createdAt,value
2018-09-15T00:00:23.438Z,0.00
2018-09-15T00:02:23.754Z,0.00
2018-09-15T00:03:23.395Z,0.00
2018-09-15T00:04:23.374Z,0.00
2018-09-15T00:05:23.460Z,0.00
2018-09-15T00:06:23.395Z,0.00
2018-09-15T00:07:23.326Z,0.00
2018-09-15T00:08:23.356Z,0.00
2018-09-15T00:09:24.893Z,0.00
2018-09-15T00:10:23.276Z,0.00
2018-09-15T00:11:23.275Z,0.00
2018-09-15T00:12:23.296Z,0.00
2018-09-15T00:13:23.227Z,0.00
2018-09-15T00:14:23.265Z,0.00
2018-09-15T00:15:23.293Z,0.00
2018-09-15T00:16:23.476Z,0.00
2018-09-15T00:17:23.218Z,0.00
2018-09-15T00:18:23.144Z,0.00
2018-09-15T00:21:23.144Z,0.00
2018-09-15T00:22:23.075Z,0.00
2018-09-15T00:24:23.349Z,0.00
2018-09-15T00:25:23.029Z,0.00
2018-09-15T00:26:23.018Z,0.00
2018-09-15T00:27:23.048Z,0.00
2018-09-15T00:28:22.981Z,0.00
2018-09-15T00:29:22.972Z,0.00
2018-09-15T00:30:23.248Z,0.00
2018-09-15T00:31:22.932Z,0.00
2018-09-15T00:32:22.912Z,0.00
2018-09-15T00:33:23.066Z,0.00
2018-09-15T00:34:22.932Z,0.00
2018-09-15T00:35:22.870Z,0.00
2018-09-15T00:36:23.148Z,0.00
2018-09-15T00:37:23.605Z,0.00
2018-09-15T00:38:22.813Z,0.00
2018-09-15T00:39:22.846Z,0.00
2018-09-15T00:40:22.781Z,0.00
2018-09-15T00:41:22.762Z,0.00
2018-09-15T00:53:25.947Z,0.00
2018-09-15T01:12:09.798Z,0.00
2018-09-15T01:13:08.814Z,0.00
2018-09-15T01:14:08.588Z,0.00
2018-09-15T01:17:08.794Z,0.00
2018-09-15T01:18:09.489Z,0.00
2018-09-15T01:19:08.815Z,0.00
2018-09-15T01:20:08.384Z,0.00
2018-09-15T01:21:08.379Z,0.00
2018-09-15T01:23:09.638Z,0.00
2018-09-15T01:26:08.858Z,0.00
2018-09-15T01:28:08.169Z,0.00
2018-09-15T01:29:09.062Z,0.00
2018-09-15T01:31:08.017Z,0.00
2018-09-15T01:32:11.034Z,0.00
2018-09-15T01:34:08.176Z,0.00
2018-09-15T01:36:13.066Z,0.00
2018-09-15T01:38:07.810Z,0.00
2018-09-15T01:40:07.908Z,0.00
2018-09-15T01:54:07.625Z,0.00
2018-09-15T01:57:07.689Z,0.00
2018-09-15T01:58:08.366Z,0.00
2018-09-15T02:02:09.606Z,0.00
2018-09-15T02:03:07.188Z,0.00
2018-09-15T02:08:07.390Z,0.00
2018-09-15T02:11:08.146Z,0.00
2018-09-15T02:13:07.209Z,0.00
2018-09-15T02:14:07.293Z,0.00
2018-09-15T02:17:06.266Z,0.00
2018-09-15T02:18:06.294Z,0.00
2018-09-15T02:19:06.296Z,0.00
2018-09-15T02:20:06.267Z,0.00
2018-09-15T02:21:09.250Z,0.00
2018-09-15T02:22:17.682Z,0.00
2018-09-15T02:23:11.222Z,0.00
2018-09-15T02:24:06.370Z,0.00
2018-09-15T02:25:09.198Z,0.00
2018-09-15T02:26:39.432Z,0.00
2018-09-15T02:27:06.217Z,0.00
2018-09-15T02:28:06.142Z,0.00
2018-09-15T02:29:06.369Z,0.00
2018-09-15T02:30:09.240Z,0.00
2018-09-15T02:31:16.439Z,0.00
2018-09-15T02:33:07.626Z,0.00
2018-09-15T02:34:06.237Z,0.00
2018-09-15T02:37:53.112Z,0.00
2018-09-15T02:42:20.251Z,0.00
2018-09-15T02:43:19.928Z,0.00
2018-09-15T02:44:19.899Z,0.00
2018-09-15T02:45:19.898Z,0.00
2018-09-15T02:46:19.868Z,0.00
2018-09-15T02:47:19.851Z,0.00
2018-09-15T02:48:19.981Z,0.00
2018-09-15T02:49:19.940Z,0.00
2018-09-15T02:50:19.898Z,0.00
2018-09-15T02:51:19.779Z,0.00
2018-09-15T02:52:19.813Z,0.00
2018-09-15T02:53:19.774Z,0.00
2018-09-15T02:54:19.891Z,0.00
2018-09-15T02:55:19.706Z,0.00
2018-09-15T02:56:19.689Z,0.00
2018-09-15T02:57:19.669Z,0.00
2018-09-15T02:58:19.656Z,0.00
2018-09-15T02:59:19.634Z,0.00
2018-09-15T03:00:19.727Z,0.00
2018-09-15T03:01:19.615Z,0.00
2018-09-15T03:02:19.588Z,0.00
2018-09-15T03:03:19.590Z,0.00
2018-09-15T03:04:19.549Z,0.00
2018-09-15T03:05:19.530Z,0.00
2018-09-15T03:06:19.711Z,0.00
2018-09-15T03:07:19.707Z,0.00
2018-09-15T03:08:19.545Z,0.00
2018-09-15T03:09:19.557Z,0.00
2018-09-15T03:10:19.544Z,0.00
2018-09-15T03:12:19.461Z,0.00
2018-09-15T03:13:20.107Z,0.00
2018-09-15T03:14:19.473Z,0.00
2018-09-15T03:15:19.449Z,0.00
2018-09-15T03:16:20.845Z,0.00
2018-09-15T03:17:19.324Z,0.00
2018-09-15T03:18:19.440Z,0.00
2018-09-15T03:20:19.266Z,0.00
2018-09-15T03:21:19.430Z,0.00
2018-09-15T03:22:19.234Z,0.00
2018-09-15T03:23:19.210Z,0.00
2018-09-15T03:24:19.301Z,0.00
2018-09-15T03:25:19.278Z,0.00
2018-09-15T03:26:19.535Z,0.00
2018-09-15T03:27:19.145Z,0.00
2018-09-15T03:28:19.128Z,0.00
2018-09-15T03:29:19.103Z,0.00
2018-09-15T03:30:19.292Z,0.00
2018-09-15T03:31:19.067Z,0.00
2018-09-15T03:32:19.066Z,0.00
2018-09-15T03:33:19.032Z,0.00
2018-09-15T03:34:19.029Z,0.00
2018-09-15T03:35:18.999Z,0.00
2018-09-15T03:36:19.030Z,0.00
2018-09-15T03:37:18.963Z,0.00
2018-09-15T03:38:18.946Z,0.00
2018-09-15T03:39:18.949Z,0.00
2018-09-15T03:40:18.971Z,0.00
2018-09-15T03:41:18.902Z,0.00
2018-09-15T03:42:18.929Z,0.00
2018-09-15T03:43:18.857Z,0.00
2018-09-15T03:44:18.946Z,0.00
2018-09-15T03:45:18.836Z,0.00
2018-09-15T03:46:18.908Z,0.00
2018-09-15T03:47:18.789Z,0.00
2018-09-15T03:48:18.818Z,0.00
2018-09-15T03:49:19.054Z,0.00
2018-09-15T03:50:18.735Z,0.00
2018-09-15T03:51:18.764Z,0.00
2018-09-15T03:53:18.680Z,0.00
2018-09-15T03:54:19.011Z,0.00
2018-09-15T03:55:18.743Z,0.00
2018-09-15T03:56:18.753Z,0.00
2018-09-15T03:57:18.772Z,0.00
2018-09-15T03:58:18.693Z,0.00
2018-09-15T03:59:18.578Z,0.00
2018-09-15T04:00:18.657Z,0.00
2018-09-15T04:01:18.531Z,0.00
2018-09-15T04:02:18.517Z,0.00
2018-09-15T04:03:18.502Z,0.00
2018-09-15T04:04:18.785Z,0.00
2018-09-15T04:05:18.473Z,0.00
2018-09-15T04:06:18.562Z,0.00
2018-09-15T04:07:18.440Z,0.00
2018-09-15T04:08:18.514Z,0.00
2018-09-15T04:09:18.395Z,0.00
2018-09-15T04:10:18.380Z,0.00
2018-09-15T04:11:18.404Z,0.00
2018-09-15T04:12:18.497Z,0.00
2018-09-15T04:13:18.326Z,0.00
2018-09-15T04:14:18.301Z,0.00
2018-09-15T04:15:18.293Z,0.00
2018-09-15T04:16:18.270Z,0.00
2018-09-15T04:18:18.735Z,0.00
2018-09-15T04:19:18.230Z,0.00
2018-09-15T04:20:18.308Z,0.00
2018-09-15T04:21:18.307Z,0.00
2018-09-15T04:22:18.266Z,0.00
2018-09-15T04:24:18.481Z,4.00
2018-09-15T04:25:18.294Z,0.00
2018-09-15T04:26:18.093Z,0.00
2018-09-15T04:27:18.085Z,4.00
2018-09-15T04:28:18.208Z,4.00
2018-09-15T04:29:18.045Z,4.00
2018-09-15T04:30:18.369Z,8.00
2018-09-15T04:31:18.259Z,8.00
2018-09-15T04:32:18.036Z,8.00
2018-09-15T04:34:17.947Z,12.00
2018-09-15T04:36:18.631Z,16.00
2018-09-15T04:37:18.658Z,16.00
2018-09-15T04:38:17.955Z,16.00
2018-09-15T04:39:18.012Z,20.00
2018-09-15T04:40:17.843Z,24.00
2018-09-15T04:41:17.829Z,28.00
2018-09-15T04:42:17.855Z,32.00
2018-09-15T04:43:17.793Z,32.00
2018-09-15T04:44:17.772Z,40.00
2018-09-15T04:45:17.760Z,44.00
2018-09-15T04:46:17.737Z,52.00
2018-09-15T04:47:17.750Z,60.00
2018-09-15T04:49:18.035Z,72.00
2018-09-15T04:50:17.677Z,84.00
2018-09-15T04:52:17.680Z,96.00
2018-09-15T04:53:17.618Z,104.00
2018-09-15T04:54:17.598Z,104.00
2018-09-15T04:55:17.627Z,124.00
2018-09-15T04:56:17.622Z,140.00
2018-09-15T04:57:17.651Z,144.00
2018-09-15T04:58:17.775Z,152.00
2018-09-15T04:59:17.515Z,168.00
2018-09-15T05:00:17.497Z,188.00
2018-09-15T05:02:18.238Z,220.00
2018-09-15T05:03:17.446Z,216.00
2018-09-15T05:04:17.417Z,244.00
2018-09-15T05:05:17.408Z,252.00
2018-09-15T05:06:17.395Z,276.00
2018-09-15T05:07:17.371Z,300.00
2018-09-15T05:08:17.480Z,304.00
2018-09-15T05:09:17.336Z,332.00
2018-09-15T05:10:17.323Z,352.00
2018-09-15T05:11:17.408Z,352.00
2018-09-15T05:12:17.427Z,372.00
2018-09-15T05:13:17.965Z,384.00
2018-09-15T05:14:17.357Z,408.00
2018-09-15T05:15:17.537Z,412.00
2018-09-15T05:16:17.314Z,400.00
2018-09-15T05:17:17.506Z,460.00
2018-09-15T05:18:17.333Z,460.00
2018-09-15T05:19:17.470Z,476.00
2018-09-15T05:21:17.876Z,468.00
2018-09-15T05:22:17.173Z,432.00
2018-09-15T05:23:17.195Z,436.00
2018-09-15T05:24:17.185Z,440.00
2018-09-15T05:26:17.149Z,456.00
2018-09-15T05:27:17.213Z,472.00
2018-09-15T05:29:17.177Z,464.00
2018-09-15T05:30:17.163Z,488.00
2018-09-15T05:31:17.049Z,496.00
2018-09-15T05:32:17.110Z,508.00
2018-09-15T05:33:16.927Z,532.00
2018-09-15T05:34:16.928Z,564.00
2018-09-15T05:35:17.001Z,548.00
2018-09-15T05:36:16.877Z,612.00
2018-09-15T05:37:17.153Z,592.00
2018-09-15T05:38:16.984Z,572.00
2018-09-15T05:39:16.859Z,580.00
2018-09-15T05:40:16.835Z,584.00
2018-09-15T05:41:16.902Z,600.00
2018-09-15T05:42:16.763Z,624.00
2018-09-15T05:43:17.063Z,628.00
2018-09-15T05:44:16.918Z,640.00
2018-09-15T05:45:16.972Z,672.00
2018-09-15T05:46:16.726Z,668.00
2018-09-15T05:47:16.668Z,692.00
2018-09-15T05:49:16.932Z,716.00
2018-09-15T05:50:16.730Z,824.00
2018-09-15T05:51:16.586Z,828.00
2018-09-15T05:54:16.562Z,876.00
2018-09-15T05:55:16.525Z,884.00
2018-09-15T05:56:16.563Z,896.00
2018-09-15T05:57:16.482Z,916.00
2018-09-15T05:58:16.469Z,912.00
2018-09-15T05:59:16.600Z,896.00
2018-09-15T06:00:16.632Z,908.00
2018-09-15T06:02:16.946Z,896.00
2018-09-15T06:03:16.384Z,944.00
2018-09-15T06:04:16.395Z,964.00
2018-09-15T06:05:16.435Z,972.00
2018-09-15T06:06:16.374Z,948.00
2018-09-15T06:07:16.597Z,1012.00
2018-09-15T06:09:16.721Z,1004.00
2018-09-15T06:10:16.315Z,1004.00
2018-09-15T06:11:16.241Z,1040.00
2018-09-15T06:12:18.421Z,1084.00
2018-09-15T06:14:16.245Z,1020.00
2018-09-15T06:15:16.284Z,1016.00
2018-09-15T06:16:16.196Z,1056.00
2018-09-15T06:17:16.499Z,1088.00
2018-09-15T06:18:16.124Z,1088.00
2018-09-15T06:19:16.195Z,1096.00
2018-09-15T06:20:16.082Z,1060.00
2018-09-15T06:21:16.607Z,1076.00
2018-09-15T06:22:16.194Z,1092.00
2018-09-15T06:23:16.094Z,1096.00
2018-09-15T06:24:16.011Z,1168.00
2018-09-15T06:25:16.003Z,1092.00
2018-09-15T06:26:15.974Z,1232.00
2018-09-15T06:27:16.352Z,1108.00
2018-09-15T06:28:15.938Z,1156.00
2018-09-15T06:29:16.121Z,1128.00
2018-09-15T06:31:15.944Z,1172.00
2018-09-15T06:32:15.926Z,1240.00
2018-09-15T06:33:16.248Z,1176.00
2018-09-15T06:34:15.826Z,1400.00
2018-09-15T06:35:15.837Z,1092.00
2018-09-15T06:36:15.946Z,1076.00
2018-09-15T06:37:15.887Z,1136.00
2018-09-15T06:38:15.819Z,1144.00
2018-09-15T06:39:15.903Z,1172.00
2018-09-15T06:40:15.727Z,1216.00
2018-09-15T06:41:15.711Z,1252.00
2018-09-15T06:42:15.793Z,1392.00
2018-09-15T06:43:15.779Z,1408.00
2018-09-15T06:44:15.754Z,1372.00
2018-09-15T06:45:15.746Z,1272.00
2018-09-15T06:47:15.621Z,1372.00
2018-09-15T06:48:15.625Z,1572.00
2018-09-15T06:49:15.578Z,1900.00
2018-09-15T06:50:15.846Z,1892.00
2018-09-15T06:51:15.624Z,2360.00
2018-09-15T06:52:15.941Z,2388.00
2018-09-15T06:53:15.798Z,2136.00
2018-09-15T06:54:15.491Z,1772.00
2018-09-15T06:58:15.427Z,2600.00
2018-09-15T06:59:15.406Z,2596.00
2018-09-15T07:01:15.390Z,1792.00
2018-09-15T07:02:15.382Z,1884.00
2018-09-15T07:03:15.434Z,2252.00
2018-09-15T07:04:15.335Z,2696.00
2018-09-15T07:05:15.314Z,3500.00
2018-09-15T07:06:15.337Z,4312.00
2018-09-15T07:07:15.575Z,3680.00
2018-09-15T07:08:15.268Z,3208.00
2018-09-15T07:10:15.236Z,2136.00
2018-09-15T07:11:15.201Z,1908.00
2018-09-15T07:12:15.497Z,2140.00
2018-09-15T07:13:15.236Z,2428.00
2018-09-15T07:14:15.221Z,3196.00
2018-09-15T07:15:15.257Z,4104.00
2018-09-15T07:16:15.151Z,4352.00
2018-09-15T07:17:15.133Z,4308.00
2018-09-15T07:18:15.106Z,3984.00
2018-09-15T07:19:15.432Z,3584.00
2018-09-15T07:20:15.217Z,3760.00
2018-09-15T07:21:15.232Z,3956.00
2018-09-15T07:22:16.683Z,4928.00
2018-09-15T07:23:15.076Z,5440.00
2018-09-15T07:25:15.395Z,4780.00
2018-09-15T07:26:15.568Z,4592.00
2018-09-15T07:27:14.981Z,5044.00
2018-09-15T07:28:14.938Z,4820.00
2018-09-15T07:29:14.984Z,4332.00
2018-09-15T07:30:15.069Z,4012.00
2018-09-15T07:31:15.789Z,4128.00
2018-09-15T07:32:16.176Z,3592.00
2018-09-15T07:33:14.917Z,3528.00
2018-09-15T07:34:14.849Z,3432.00
2018-09-15T07:36:14.869Z,4124.00
2018-09-15T07:37:15.112Z,3852.00
2018-09-15T07:38:15.706Z,3228.00
2018-09-15T07:39:14.776Z,3448.00
2018-09-15T07:40:14.756Z,2524.00
2018-09-15T07:41:14.886Z,2028.00
2018-09-15T07:44:15.216Z,1952.00
2018-09-15T07:45:14.794Z,2072.00
2018-09-15T07:46:14.673Z,2204.00
2018-09-15T07:47:14.792Z,2240.00
2018-09-15T07:48:14.644Z,2224.00
2018-09-15T07:49:14.680Z,2408.00
2018-09-15T07:50:15.708Z,2264.00
2018-09-15T07:51:14.602Z,2560.00
2018-09-15T07:52:14.664Z,2880.00
2018-09-15T07:53:14.567Z,3396.00
2018-09-15T07:54:14.559Z,3472.00
2018-09-15T07:55:14.537Z,4048.00
2018-09-15T07:57:14.525Z,4728.00
2018-09-15T07:59:14.542Z,4904.00
2018-09-15T08:01:14.541Z,5528.00
2018-09-15T08:02:14.951Z,5692.00
2018-09-15T08:03:14.429Z,5532.00
2018-09-15T08:04:14.412Z,5712.00
2018-09-15T08:05:14.398Z,6496.00
2018-09-15T08:06:14.392Z,6448.00
2018-09-15T08:07:14.398Z,6272.00
2018-09-15T08:08:14.804Z,5792.00
2018-09-15T08:09:14.343Z,5524.00
2018-09-15T08:10:14.377Z,4268.00
2018-09-15T08:11:14.314Z,4212.00
2018-09-15T08:12:14.303Z,3584.00
2018-09-15T08:13:14.289Z,2964.00
2018-09-15T08:14:14.638Z,2520.00
2018-09-15T08:15:15.221Z,2420.00
2018-09-15T08:16:20.575Z,2512.00
2018-09-15T08:17:14.305Z,2280.00
2018-09-15T08:18:14.224Z,2568.00
2018-09-15T08:19:14.254Z,2504.00
2018-09-15T08:20:14.625Z,2780.00
2018-09-15T08:21:14.446Z,2620.00
2018-09-15T08:22:14.171Z,2552.00
2018-09-15T08:23:14.267Z,3136.00
2018-09-15T08:24:14.197Z,2644.00
2018-09-15T08:25:14.402Z,2644.00
2018-09-15T08:26:14.576Z,2596.00
2018-09-15T08:27:14.523Z,2740.00
2018-09-15T08:29:14.080Z,3004.00
2018-09-15T08:30:14.071Z,3236.00
2018-09-15T08:31:14.352Z,3104.00
2018-09-15T08:32:14.440Z,3384.00
2018-09-15T08:33:14.024Z,3052.00
2018-09-15T08:34:14.014Z,2952.00
2018-09-15T08:35:14.025Z,3208.00
2018-09-15T08:36:13.986Z,3276.00
2018-09-15T08:37:13.972Z,3892.00
2018-09-15T08:40:13.979Z,3504.00
2018-09-15T08:42:13.948Z,4208.00
2018-09-15T08:43:13.955Z,4540.00
2018-09-15T08:44:13.936Z,4028.00
2018-09-15T08:45:14.473Z,6064.00
2018-09-15T08:46:13.855Z,6184.00
2018-09-15T08:47:13.844Z,6888.00
2018-09-15T08:48:13.941Z,6728.00
2018-09-15T08:49:13.818Z,6720.00
2018-09-15T08:50:13.851Z,6408.00
2018-09-15T08:51:14.194Z,6220.00
2018-09-15T08:52:13.835Z,5980.00
2018-09-15T08:53:14.021Z,6384.00
2018-09-15T08:54:13.754Z,4340.00
2018-09-15T08:55:13.794Z,4388.00
2018-09-15T08:57:14.237Z,4024.00
2018-09-15T08:59:14.349Z,4240.00
2018-09-15T09:00:14.465Z,4612.00
2018-09-15T09:01:14.601Z,5188.00
2018-09-15T09:03:14.010Z,5924.00
2018-09-15T09:04:13.686Z,6884.00
2018-09-15T09:05:13.692Z,7084.00
2018-09-15T09:06:13.603Z,5360.00
2018-09-15T09:07:13.993Z,5156.00
2018-09-15T09:08:13.690Z,4728.00
2018-09-15T09:09:13.959Z,6140.00
2018-09-15T09:11:13.590Z,3884.00
2018-09-15T09:12:13.607Z,5272.00
2018-09-15T09:15:13.862Z,5712.00
2018-09-15T09:16:13.638Z,6308.00
2018-09-15T09:17:13.594Z,8376.00
2018-09-15T09:18:13.543Z,5900.00
2018-09-15T09:19:13.626Z,6140.00
2018-09-15T09:20:13.560Z,6544.00
2018-09-15T09:21:13.810Z,5880.00
2018-09-15T09:22:13.422Z,9656.00
2018-09-15T09:23:13.661Z,6656.00
2018-09-15T09:24:13.459Z,4056.00
2018-09-15T09:25:14.298Z,6968.00
2018-09-15T09:26:13.599Z,11348.00
2018-09-15T09:27:13.761Z,12736.00
2018-09-15T09:29:13.499Z,11048.00
2018-09-15T09:30:13.379Z,7796.00
2018-09-15T09:31:13.423Z,12768.00
2018-09-15T09:32:13.624Z,7940.00
2018-09-15T09:33:13.869Z,18496.00
2018-09-15T09:35:13.880Z,12460.00
2018-09-15T09:37:13.321Z,10148.00
2018-09-15T09:38:14.109Z,10868.00
2018-09-15T09:43:19.485Z,10904.00
2018-09-15T09:45:13.218Z,9916.00
2018-09-15T09:46:13.507Z,9928.00
2018-09-15T09:47:13.142Z,9388.00
2018-09-15T09:49:13.323Z,11444.00
2018-09-15T09:50:13.313Z,11448.00
2018-09-15T09:51:13.597Z,16864.00
2018-09-15T09:52:13.617Z,15008.00
2018-09-15T09:53:13.137Z,11004.00
2018-09-15T09:55:13.158Z,11444.00
2018-09-15T09:56:13.234Z,11692.00
2018-09-15T09:57:13.205Z,13732.00
2018-09-15T09:58:13.896Z,13212.00
2018-09-15T09:59:13.010Z,11560.00
2018-09-15T10:00:12.998Z,12396.00
2018-09-15T10:01:13.102Z,15424.00
2018-09-15T10:02:12.975Z,15296.00
2018-09-15T10:04:13.340Z,17856.00
2018-09-15T10:05:12.955Z,15776.00
2018-09-15T10:06:12.990Z,17536.00
2018-09-15T10:07:13.109Z,13772.00
2018-09-15T10:08:13.318Z,11652.00
2018-09-15T10:09:12.960Z,14752.00
2018-09-15T10:11:13.240Z,14420.00
2018-09-15T10:12:12.924Z,14024.00
2018-09-15T10:14:12.843Z,11592.00
2018-09-15T10:15:12.934Z,9796.00
2018-09-15T10:16:12.933Z,6948.00
2018-09-15T10:17:13.178Z,11620.00
2018-09-15T10:18:12.952Z,24576.00
2018-09-15T10:19:13.428Z,12140.00
2018-09-15T10:21:12.851Z,11280.00
2018-09-15T10:22:12.837Z,27872.00
2018-09-15T10:25:13.132Z,7328.00
2018-09-15T10:26:12.823Z,7940.00
2018-09-15T10:27:12.710Z,10240.00
2018-09-15T10:28:12.693Z,11964.00
2018-09-15T10:29:12.999Z,32320.00
2018-09-15T10:30:12.701Z,27936.00
2018-09-15T10:31:12.855Z,11676.00
2018-09-15T10:32:12.799Z,10700.00
2018-09-15T10:33:12.594Z,8836.00
2018-09-15T10:34:12.604Z,9460.00
2018-09-15T10:35:13.019Z,6596.00
2018-09-15T10:36:12.559Z,5052.00
2018-09-15T10:37:12.745Z,4312.00
2018-09-15T10:38:12.542Z,6428.00
2018-09-15T10:39:12.530Z,10744.00
2018-09-15T10:40:12.578Z,15360.00
2018-09-15T10:41:12.864Z,13736.00
2018-09-15T10:42:12.555Z,15552.00
2018-09-15T10:43:12.547Z,11260.00
2018-09-15T10:44:12.663Z,8632.00
2018-09-15T10:45:12.475Z,25440.00
2018-09-15T10:46:12.533Z,26720.00
2018-09-15T10:47:12.806Z,14592.00
2018-09-15T10:48:12.492Z,8636.00
2018-09-15T10:49:12.479Z,4392.00
2018-09-15T10:50:12.424Z,4420.00
2018-09-15T10:51:12.401Z,4532.00
2018-09-15T10:52:12.419Z,7708.00
2018-09-15T10:53:12.759Z,9556.00
2018-09-15T10:54:12.476Z,12428.00
2018-09-15T10:55:12.422Z,10008.00
2018-09-15T10:56:12.509Z,10972.00
2018-09-15T10:57:12.399Z,11620.00
2018-09-15T10:58:12.388Z,11716.00
2018-09-15T10:59:12.697Z,12448.00
2018-09-15T11:00:12.635Z,12316.00
2018-09-15T11:01:12.356Z,12100.00
2018-09-15T11:02:12.336Z,12568.00
2018-09-15T11:03:12.429Z,13872.00
2018-09-15T11:04:12.376Z,13744.00
2018-09-15T11:05:12.645Z,12208.00
2018-09-15T11:06:12.307Z,11544.00
2018-09-15T11:07:12.366Z,9980.00
2018-09-15T11:08:12.298Z,8776.00
2018-09-15T11:09:12.237Z,9388.00
2018-09-15T11:10:12.257Z,8528.00
2018-09-15T11:11:12.492Z,8012.00
2018-09-15T11:12:12.302Z,8324.00
2018-09-15T11:14:12.224Z,6260.00
2018-09-15T11:15:12.228Z,4828.00
2018-09-15T11:16:12.204Z,3592.00
2018-09-15T11:17:13.289Z,3096.00
2018-09-15T11:18:12.206Z,3224.00
2018-09-15T11:19:12.644Z,3744.00
2018-09-15T11:20:12.100Z,3596.00
2018-09-15T11:21:12.099Z,4080.00
2018-09-15T11:22:12.147Z,4420.00
2018-09-15T11:23:12.428Z,5036.00
2018-09-15T11:24:12.070Z,7440.00
2018-09-15T11:25:12.208Z,6292.00
2018-09-15T11:26:12.030Z,7168.00
2018-09-15T11:27:12.297Z,9796.00
2018-09-15T11:28:12.186Z,10532.00
2018-09-15T11:29:12.658Z,12872.00
2018-09-15T11:30:12.107Z,15296.00
2018-09-15T11:31:12.153Z,16992.00
2018-09-15T11:32:12.115Z,13396.00
2018-09-15T11:33:12.202Z,12292.00
2018-09-15T11:35:12.541Z,9244.00
2018-09-15T11:36:11.995Z,8024.00
2018-09-15T11:37:12.129Z,7948.00
2018-09-15T11:38:11.941Z,8360.00
2018-09-15T11:39:12.268Z,8508.00
2018-09-15T11:41:12.377Z,5960.00
2018-09-15T11:42:11.929Z,4308.00
2018-09-15T11:43:11.878Z,4864.00
2018-09-15T11:44:11.811Z,8320.00
2018-09-15T11:45:11.832Z,9724.00
2018-09-15T11:47:12.141Z,8704.00
2018-09-15T11:48:11.824Z,7732.00
2018-09-15T11:49:11.898Z,8224.00
2018-09-15T11:50:12.000Z,7380.00
2018-09-15T11:51:11.787Z,6468.00
2018-09-15T11:52:12.170Z,7548.00
2018-09-15T11:53:12.081Z,6448.00
2018-09-15T11:54:12.089Z,6036.00
2018-09-15T11:55:11.801Z,7684.00
2018-09-15T11:56:11.767Z,8636.00
2018-09-15T11:57:11.667Z,8952.00
2018-09-15T11:59:11.991Z,9064.00
2018-09-15T12:00:11.890Z,8788.00
2018-09-15T12:01:11.723Z,9152.00
2018-09-15T12:02:11.659Z,9224.00
2018-09-15T12:03:11.586Z,9764.00
2018-09-15T12:04:11.637Z,10100.00
2018-09-15T12:05:11.912Z,10796.00
2018-09-15T12:06:11.606Z,10648.00
2018-09-15T12:07:12.430Z,10288.00
2018-09-15T12:08:11.622Z,11156.00
2018-09-15T12:09:11.569Z,11088.00
2018-09-15T12:10:11.565Z,10372.00
2018-09-15T12:11:11.843Z,11252.00
2018-09-15T12:12:11.479Z,11552.00
2018-09-15T12:13:11.515Z,10864.00
2018-09-15T12:14:11.493Z,10612.00
2018-09-15T12:15:11.495Z,10640.00
2018-09-15T12:17:11.797Z,9528.00
2018-09-15T12:18:11.660Z,9128.00
2018-09-15T12:19:11.548Z,8232.00
2018-09-15T12:20:24.178Z,7376.00
2018-09-15T12:21:11.526Z,7180.00
2018-09-15T12:23:11.705Z,10376.00
2018-09-15T12:24:11.445Z,10304.00
2018-09-15T12:25:11.389Z,11160.00
2018-09-15T12:26:11.365Z,9532.00
2018-09-15T12:27:11.316Z,8032.00
2018-09-15T12:28:11.359Z,7396.00
2018-09-15T12:29:11.636Z,7624.00
2018-09-15T12:30:11.332Z,8912.00
2018-09-15T12:31:11.427Z,8280.00
2018-09-15T12:32:11.320Z,7568.00
2018-09-15T12:33:11.327Z,7508.00
2018-09-15T12:34:11.222Z,7824.00
2018-09-15T12:36:11.258Z,7264.00
2018-09-15T12:37:11.243Z,7324.00
2018-09-15T12:38:11.175Z,10008.00
2018-09-15T12:39:11.172Z,7708.00
2018-09-15T12:40:11.515Z,7792.00
2018-09-15T12:41:11.845Z,8352.00
2018-09-15T12:42:11.214Z,34016.00
2018-09-15T12:43:12.111Z,42624.00
2018-09-15T12:44:11.177Z,9968.00
2018-09-15T12:45:11.300Z,8880.00
2018-09-15T12:46:14.922Z,9008.00
2018-09-15T12:47:11.448Z,6304.00
2018-09-15T12:49:11.148Z,7104.00
2018-09-15T12:50:11.046Z,38368.00
2018-09-15T12:51:11.031Z,14168.00
2018-09-15T12:52:11.097Z,8532.00
2018-09-15T12:53:11.379Z,29312.00
2018-09-15T12:54:11.040Z,23488.00
2018-09-15T12:55:11.056Z,35008.00
2018-09-15T12:57:11.010Z,20160.00
2018-09-15T12:58:10.962Z,35296.00
2018-09-15T12:59:11.344Z,13628.00
2018-09-15T13:00:10.924Z,35712.00
2018-09-15T13:01:11.716Z,34112.00
2018-09-15T13:02:11.677Z,22656.00
2018-09-15T13:03:11.094Z,9716.00
2018-09-15T13:04:10.954Z,20704.00
2018-09-15T13:05:11.230Z,11332.00
2018-09-15T13:06:10.875Z,10332.00
2018-09-15T13:07:11.125Z,9788.00
2018-09-15T13:08:10.946Z,8372.00
2018-09-15T13:09:10.890Z,12064.00
2018-09-15T13:10:10.847Z,32576.00
2018-09-15T13:12:11.240Z,31616.00
2018-09-15T13:13:11.151Z,31680.00
2018-09-15T13:14:10.856Z,20128.00
2018-09-15T13:15:10.834Z,32320.00
2018-09-15T13:16:10.900Z,11204.00
2018-09-15T13:17:10.760Z,37120.00
2018-09-15T13:18:11.148Z,38656.00
2018-09-15T13:20:10.796Z,31296.00
2018-09-15T13:21:10.780Z,22176.00
2018-09-15T13:22:10.911Z,31424.00
2018-09-15T13:23:10.760Z,6564.00
2018-09-15T13:25:11.219Z,6220.00
2018-09-15T13:26:10.678Z,27232.00
2018-09-15T13:27:10.719Z,27552.00
2018-09-15T13:28:10.669Z,25984.00
2018-09-15T13:29:10.659Z,21696.00
2018-09-15T13:31:11.027Z,8880.00
2018-09-15T13:32:10.627Z,24320.00
2018-09-15T13:34:10.680Z,22176.00
2018-09-15T13:35:10.653Z,20608.00
2018-09-15T13:36:10.639Z,18720.00
2018-09-15T13:37:11.036Z,36096.00
2018-09-15T13:39:10.563Z,17696.00
2018-09-15T13:40:10.605Z,18656.00
2018-09-15T13:41:10.589Z,16896.00
2018-09-15T13:42:10.541Z,16256.00
2018-09-15T13:44:10.534Z,10708.00
2018-09-15T13:45:10.556Z,13248.00
2018-09-15T13:46:10.549Z,11684.00
2018-09-15T13:47:10.557Z,11296.00
2018-09-15T13:48:12.843Z,7556.00
2018-09-15T13:51:20.139Z,9364.00
2018-09-15T13:52:13.410Z,8808.00
2018-09-15T13:53:10.506Z,9456.00
2018-09-15T13:54:10.519Z,9652.00
2018-09-15T13:56:10.462Z,7892.00
2018-09-15T13:57:10.825Z,22080.00
2018-09-15T13:58:10.558Z,7892.00
2018-09-15T14:00:10.429Z,32864.00
2018-09-15T14:01:10.426Z,8316.00
2018-09-15T14:02:10.364Z,8300.00
2018-09-15T14:03:10.991Z,8020.00
2018-09-15T14:04:10.352Z,10040.00
2018-09-15T14:05:10.412Z,6584.00
2018-09-15T14:06:10.413Z,11460.00
2018-09-15T14:07:10.337Z,7780.00
2018-09-15T14:08:10.817Z,8108.00
2018-09-15T14:09:10.727Z,6848.00
2018-09-15T14:10:10.290Z,5676.00
2018-09-15T14:11:10.275Z,10436.00
2018-09-15T14:12:10.273Z,13444.00
2018-09-15T14:13:10.268Z,10560.00
2018-09-15T14:14:10.252Z,15360.00
2018-09-15T14:15:10.646Z,10528.00
2018-09-15T14:16:10.289Z,12376.00
2018-09-15T14:17:10.232Z,11820.00
2018-09-15T14:18:10.217Z,5740.00
2018-09-15T14:19:10.264Z,5808.00
2018-09-15T14:20:10.257Z,5428.00
2018-09-15T14:21:10.588Z,5552.00
2018-09-15T14:22:10.243Z,5568.00
2018-09-15T14:23:10.229Z,4772.00
2018-09-15T14:24:10.222Z,4396.00
2018-09-15T14:26:10.190Z,4212.00
2018-09-15T14:27:10.933Z,4556.00
2018-09-15T14:28:10.416Z,4464.00
2018-09-15T14:29:11.906Z,3388.00
2018-09-15T14:30:11.133Z,2696.00
2018-09-15T14:31:13.104Z,3312.00
2018-09-15T14:32:10.600Z,4076.00
2018-09-15T14:33:10.529Z,4064.00
2018-09-15T14:34:10.091Z,5780.00
2018-09-15T14:35:10.199Z,7904.00
2018-09-15T14:36:10.316Z,9308.00
2018-09-15T14:37:10.376Z,9472.00
2018-09-15T14:38:10.362Z,9680.00
2018-09-15T14:39:10.740Z,9896.00
2018-09-15T14:40:10.852Z,6880.00
2018-09-15T14:41:10.270Z,6308.00
2018-09-15T14:42:11.122Z,5700.00
2018-09-15T14:43:09.970Z,7612.00
2018-09-15T14:44:10.155Z,5524.00
2018-09-15T14:45:10.434Z,6320.00
2018-09-15T14:46:10.061Z,5808.00
2018-09-15T14:47:13.081Z,6736.00
2018-09-15T14:48:10.744Z,5652.00
2018-09-15T14:49:10.507Z,4720.00
2018-09-15T14:51:11.291Z,5060.00
2018-09-15T14:52:10.175Z,4300.00
2018-09-15T14:53:09.942Z,3632.00
2018-09-15T14:54:10.232Z,3160.00
2018-09-15T14:55:10.416Z,2604.00
2018-09-15T14:56:10.089Z,2044.00
2018-09-15T14:57:10.228Z,1472.00
2018-09-15T14:58:10.520Z,1528.00
2018-09-15T14:59:09.897Z,1484.00
2018-09-15T15:00:09.792Z,1300.00
2018-09-15T15:02:09.820Z,1024.00